KISW/ISW METAR and TAF weather

Enter ICAO airport designator
Station Type Date Time Source
KISW METAR 2021/05/11 00:54 UTC NOAA

KISW 110054Z AUTO 36006KT 10SM OVC090 09/M05 A3020 RMK AO2 SLP234 T00941050


Station Type Date Time Source
KISW Decoded METAR 2021/05/11 00:54 UTC NOAA

WI RAPIDS ALEXANDER FIELD, WI, United States (KISW) 44-22N 89-50W 307M
May 10, 2021 - 08:54 PM EDT / 2021.05.11 0054 UTC
Wind: from the N (360 degrees) at 7 MPH (6 KT):0
Visibility: 10 mile(s):0
Sky conditions: overcast
Temperature: 48.9 F (9.4 C)
Dew Point: 23.0 F (-5.0 C)
Relative Humidity: 35%
Pressure (altimeter): 30.2 in. Hg (1022 hPa)
ob: KISW 110054Z AUTO 36006KT 10SM OVC090 09/M05 A3020 RMK AO2 SLP234 T00941050
cycle: 1

Station Type Date Time Source
KISW TAF UTC NOAA

Error!

Example: see airport list